createdAt,value
2023-04-09T00:01:22.676Z,10.24
2023-04-09T00:03:51.672Z,10.30
2023-04-09T00:06:20.740Z,10.33
2023-04-09T00:08:49.092Z,10.32
2023-04-09T00:11:21.924Z,10.28
2023-04-09T00:13:52.652Z,10.23
2023-04-09T00:16:22.001Z,10.20
2023-04-09T00:18:51.198Z,10.15
2023-04-09T00:21:21.057Z,10.08
2023-04-09T00:23:49.238Z,10.11
2023-04-09T00:26:17.617Z,10.17
2023-04-09T00:29:43.648Z,10.19
2023-04-09T00:32:12.336Z,10.20
2023-04-09T00:34:41.226Z,10.21
2023-04-09T00:37:11.255Z,10.23
2023-04-09T00:39:39.634Z,10.28
2023-04-09T00:42:08.725Z,10.34
2023-04-09T00:44:37.823Z,10.39
2023-04-09T00:47:07.739Z,10.44
2023-04-09T00:49:36.242Z,10.47
2023-04-09T00:52:07.896Z,10.47
2023-04-09T00:54:38.615Z,10.49
2023-04-09T00:57:07.605Z,10.56
2023-04-09T00:59:37.424Z,10.55
2023-04-09T01:02:06.196Z,10.43
2023-04-09T01:04:35.408Z,10.45
2023-04-09T01:07:10.550Z,10.43
2023-04-09T01:09:57.053Z,10.40
2023-04-09T01:12:36.242Z,10.37
2023-04-09T01:15:12.654Z,10.32
2023-04-09T01:17:47.343Z,10.34
2023-04-09T01:20:29.381Z,10.39
2023-04-09T01:23:16.399Z,10.44
2023-04-09T01:26:00.758Z,10.46
2023-04-09T01:28:42.879Z,10.46
2023-04-09T01:31:14.130Z,10.44
2023-04-09T01:33:42.586Z,10.47
2023-04-09T01:36:12.142Z,10.57
2023-04-09T01:38:41.898Z,10.63
2023-04-09T01:41:14.700Z,10.66
2023-04-09T01:43:43.078Z,10.66
2023-04-09T01:46:12.344Z,10.67
2023-04-09T01:48:41.065Z,10.69
2023-04-09T01:51:14.362Z,10.69
2023-04-09T01:53:43.664Z,10.74
2023-04-09T01:56:14.703Z,10.74
2023-04-09T01:58:45.848Z,10.65
2023-04-09T02:01:20.441Z,10.66
2023-04-09T02:03:55.657Z,10.55
2023-04-09T02:06:47.649Z,10.40
2023-04-09T02:09:17.259Z,10.30
2023-04-09T02:11:46.972Z,10.21
2023-04-09T02:14:15.964Z,10.22
2023-04-09T02:16:44.449Z,10.24
2023-04-09T02:19:13.237Z,10.25
2023-04-09T02:21:41.623Z,10.25
2023-04-09T02:24:10.204Z,10.23
2023-04-09T02:26:38.788Z,10.20
2023-04-09T02:29:07.285Z,10.18
2023-04-09T02:31:35.826Z,10.15
2023-04-09T02:34:04.339Z,10.15
2023-04-09T02:36:33.644Z,10.16
2023-04-09T02:39:02.023Z,10.13
2023-04-09T02:41:37.468Z,10.11
2023-04-09T02:44:06.258Z,10.03
2023-04-09T02:46:34.665Z,10.07
2023-04-09T02:49:04.250Z,9.99
2023-04-09T02:51:35.861Z,9.92
2023-04-09T02:54:10.521Z,9.87
2023-04-09T02:56:39.124Z,9.89
2023-04-09T02:59:07.505Z,9.93
2023-04-09T03:01:37.773Z,9.93
2023-04-09T03:04:06.456Z,9.91
2023-04-09T03:06:34.898Z,9.88
2023-04-09T03:09:06.244Z,9.79
2023-04-09T03:11:37.185Z,9.81
2023-04-09T03:14:06.082Z,9.76
2023-04-09T03:16:35.900Z,9.72
2023-04-09T03:19:04.275Z,9.73
2023-04-09T03:21:33.472Z,9.74
2023-04-09T03:24:02.579Z,9.72
2023-04-09T03:26:36.508Z,9.68
2023-04-09T03:29:11.003Z,9.63
2023-04-09T03:31:40.231Z,9.54
2023-04-09T03:34:09.301Z,9.47
2023-04-09T03:36:38.193Z,9.45
2023-04-09T03:39:12.537Z,9.44
2023-04-09T03:41:43.768Z,9.48
2023-04-09T03:44:16.749Z,9.56
2023-04-09T03:47:03.562Z,9.58
2023-04-09T03:49:35.941Z,9.54
2023-04-09T03:52:11.689Z,9.47
2023-04-09T03:54:43.753Z,9.42
2023-04-09T03:57:18.519Z,9.38
2023-04-09T03:59:52.288Z,9.43
2023-04-09T04:02:22.625Z,9.49
2023-04-09T04:04:58.904Z,9.51
2023-04-09T04:07:30.437Z,9.54
2023-04-09T04:10:06.470Z,9.58
2023-04-09T04:12:35.180Z,9.60
2023-04-09T04:15:20.456Z,9.61
2023-04-09T04:17:54.673Z,9.60
2023-04-09T04:20:40.564Z,9.69
2023-04-09T04:23:31.882Z,9.80
2023-04-09T04:26:11.422Z,9.77
2023-04-09T04:28:40.738Z,9.85
2023-04-09T04:31:11.053Z,9.86
2023-04-09T04:33:41.492Z,9.85
2023-04-09T04:36:14.153Z,9.89
2023-04-09T04:38:46.582Z,10.03
2023-04-09T04:41:19.318Z,10.11
2023-04-09T04:43:54.869Z,10.18
2023-04-09T04:46:27.960Z,10.22
2023-04-09T04:48:57.258Z,10.21
2023-04-09T04:51:27.833Z,10.18
2023-04-09T04:54:06.306Z,10.20
2023-04-09T04:56:37.150Z,10.22
2023-04-09T04:59:16.693Z,10.22
2023-04-09T05:01:59.158Z,10.21
2023-04-09T05:04:28.192Z,10.15
2023-04-09T05:07:00.769Z,10.10
2023-04-09T05:09:29.561Z,10.11
2023-04-09T05:12:10.037Z,10.10
2023-04-09T05:14:43.217Z,10.00
2023-04-09T05:17:12.108Z,9.92
2023-04-09T05:19:44.995Z,9.93
2023-04-09T05:22:13.586Z,10.05
2023-04-09T05:24:44.727Z,10.10
2023-04-09T05:27:13.415Z,10.14
2023-04-09T05:29:42.405Z,10.17
2023-04-09T05:32:21.645Z,10.23
2023-04-09T05:34:50.549Z,10.37
2023-04-09T05:37:19.328Z,10.47
2023-04-09T05:39:53.749Z,10.51
2023-04-09T05:42:22.652Z,10.56
2023-04-09T05:44:54.405Z,10.60
2023-04-09T05:47:23.630Z,10.74
2023-04-09T05:50:09.839Z,10.83
2023-04-09T05:52:43.819Z,10.87
2023-04-09T05:55:13.525Z,10.90
2023-04-09T05:57:46.104Z,11.01
2023-04-09T06:00:16.850Z,11.14
2023-04-09T06:02:45.870Z,11.21
2023-04-09T06:05:15.651Z,11.27
2023-04-09T06:07:44.440Z,11.32
2023-04-09T06:10:13.434Z,11.39
2023-04-09T06:12:42.331Z,11.59
2023-04-09T06:15:17.264Z,11.78
2023-04-09T06:17:46.687Z,11.88
2023-04-09T06:20:16.896Z,11.92
2023-04-09T06:22:48.863Z,12.01
2023-04-09T06:25:18.272Z,12.10
2023-04-09T06:27:47.462Z,12.24
2023-04-09T06:30:18.948Z,12.32
2023-04-09T06:32:54.280Z,12.37
2023-04-09T06:35:23.672Z,12.39
2023-04-09T06:37:52.680Z,12.42
2023-04-09T06:40:23.592Z,12.48
2023-04-09T06:42:52.291Z,12.56
2023-04-09T06:45:29.168Z,12.51
2023-04-09T06:47:57.757Z,12.44
2023-04-09T06:50:31.760Z,12.38
2023-04-09T06:53:01.579Z,12.33
2023-04-09T06:55:30.164Z,12.39
2023-04-09T06:58:01.675Z,12.47
2023-04-09T07:00:31.027Z,12.73
2023-04-09T07:03:15.024Z,12.86
2023-04-09T07:05:44.592Z,12.92
2023-04-09T07:08:13.268Z,12.95
2023-04-09T07:10:42.570Z,12.88
2023-04-09T07:13:13.411Z,12.85
2023-04-09T07:15:44.072Z,12.83
2023-04-09T07:18:17.036Z,12.82
2023-04-09T07:20:48.185Z,12.81
2023-04-09T07:23:16.677Z,12.81
2023-04-09T07:25:45.253Z,12.82
2023-04-09T07:28:14.347Z,12.76
2023-04-09T07:30:42.706Z,12.83
2023-04-09T07:33:11.231Z,12.91
2023-04-09T07:35:40.338Z,13.02
2023-04-09T07:38:08.707Z,13.13
2023-04-09T07:40:41.786Z,13.24
2023-04-09T07:43:10.782Z,13.35
2023-04-09T07:45:39.674Z,13.48
2023-04-09T07:48:09.594Z,13.62
2023-04-09T07:50:39.203Z,13.75
2023-04-09T07:53:07.586Z,13.86
2023-04-09T07:55:37.726Z,13.92
2023-04-09T07:58:06.807Z,13.98
2023-04-09T08:00:42.362Z,14.06
2023-04-09T08:03:12.101Z,14.12
2023-04-09T08:05:40.660Z,14.19
2023-04-09T08:08:14.160Z,14.29
2023-04-09T08:10:44.279Z,14.33
2023-04-09T08:13:12.866Z,14.38
2023-04-09T08:15:44.650Z,14.48
2023-04-09T08:18:13.214Z,14.66
2023-04-09T08:20:45.585Z,14.88
2023-04-09T08:23:24.315Z,15.07
2023-04-09T08:25:53.206Z,15.14
2023-04-09T08:28:22.101Z,15.16
2023-04-09T08:30:52.121Z,15.18
2023-04-09T08:33:20.502Z,15.22
2023-04-09T08:35:49.089Z,15.30
2023-04-09T08:38:19.415Z,15.32
2023-04-09T08:40:47.796Z,15.32
2023-04-09T08:43:16.896Z,15.26
2023-04-09T08:45:45.699Z,15.22
2023-04-09T08:48:14.401Z,15.31
2023-04-09T08:50:46.446Z,15.44
2023-04-09T08:53:15.151Z,15.53
2023-04-09T08:55:47.817Z,15.62
2023-04-09T08:58:16.401Z,15.71
2023-04-09T09:00:46.212Z,15.75
2023-04-09T09:03:16.122Z,15.76
2023-04-09T09:05:45.879Z,15.91
2023-04-09T09:08:24.357Z,16.25
2023-04-09T09:10:52.847Z,16.70
2023-04-09T09:13:26.292Z,17.18
2023-04-09T09:15:56.585Z,17.48
2023-04-09T09:18:39.418Z,17.56
2023-04-09T09:21:14.592Z,17.57
2023-04-09T09:23:43.329Z,17.59
2023-04-09T09:26:14.984Z,17.68
2023-04-09T09:28:47.256Z,17.83
2023-04-09T09:31:16.759Z,17.96
2023-04-09T09:33:50.674Z,18.03
2023-04-09T09:36:35.278Z,18.02
2023-04-09T09:39:10.122Z,17.95
2023-04-09T09:41:46.146Z,17.93
2023-04-09T09:44:31.601Z,18.00
2023-04-09T09:47:00.204Z,18.09
2023-04-09T09:49:29.301Z,18.20
2023-04-09T09:51:58.300Z,18.26
2023-04-09T09:54:35.190Z,18.20
2023-04-09T09:57:06.036Z,18.11
2023-04-09T09:59:48.092Z,18.08
2023-04-09T10:02:21.224Z,18.12
2023-04-09T10:04:56.251Z,18.15
2023-04-09T10:07:27.004Z,18.10
2023-04-09T10:09:55.937Z,18.07
2023-04-09T10:12:24.371Z,18.03
2023-04-09T10:14:56.244Z,17.99
2023-04-09T10:17:24.758Z,17.92
2023-04-09T10:20:12.036Z,17.95
2023-04-09T10:22:40.619Z,18.13
2023-04-09T10:25:10.245Z,18.33
2023-04-09T10:27:39.646Z,18.37
2023-04-09T10:30:10.824Z,18.27
2023-04-09T10:32:51.067Z,18.21
2023-04-09T10:35:39.428Z,18.26
2023-04-09T10:38:11.457Z,18.38
2023-04-09T10:40:49.947Z,18.56
2023-04-09T10:43:21.433Z,18.71
2023-04-09T10:45:54.652Z,18.92
2023-04-09T10:48:26.306Z,19.10
2023-04-09T10:51:08.492Z,19.16
2023-04-09T10:53:37.693Z,19.06
2023-04-09T10:56:15.088Z,18.92
2023-04-09T10:58:45.727Z,18.78
2023-04-09T11:01:22.361Z,18.61
2023-04-09T11:04:11.649Z,18.44
2023-04-09T11:06:43.740Z,18.29
2023-04-09T11:09:12.732Z,18.20
2023-04-09T11:11:41.935Z,18.12
2023-04-09T11:14:12.057Z,17.97
2023-04-09T11:16:41.208Z,17.86
2023-04-09T11:19:13.013Z,17.81
2023-04-09T11:21:49.381Z,17.78
2023-04-09T11:24:19.088Z,17.71
2023-04-09T11:26:51.669Z,17.69
2023-04-09T11:29:37.361Z,17.91
2023-04-09T11:32:05.847Z,18.35
2023-04-09T11:34:53.992Z,18.91
2023-04-09T11:37:24.344Z,19.32
2023-04-09T11:39:57.738Z,19.66
2023-04-09T11:42:31.940Z,19.94
2023-04-09T11:45:07.460Z,20.15
2023-04-09T11:47:51.872Z,20.27
2023-04-09T11:50:23.303Z,20.48
2023-04-09T11:52:52.792Z,20.63
2023-04-09T11:55:31.011Z,20.70
2023-04-09T11:58:03.797Z,20.76
2023-04-09T12:00:32.688Z,21.00
2023-04-09T12:03:03.775Z,21.29
2023-04-09T12:05:51.120Z,21.44
2023-04-09T12:08:23.988Z,21.48
2023-04-09T12:11:11.700Z,21.52
2023-04-09T12:13:44.886Z,21.46
2023-04-09T12:16:14.672Z,21.45
2023-04-09T12:19:04.284Z,21.54
2023-04-09T12:21:54.969Z,21.70
2023-04-09T12:24:26.119Z,21.83
2023-04-09T12:26:54.511Z,21.91
2023-04-09T12:29:22.879Z,21.98
2023-04-09T12:31:54.255Z,21.96
2023-04-09T12:34:27.829Z,21.88
2023-04-09T12:37:05.223Z,21.79
2023-04-09T12:39:34.467Z,21.63
2023-04-09T12:42:04.765Z,21.53
2023-04-09T12:47:17.979Z,21.27
2023-04-09T12:49:51.498Z,21.37
2023-04-09T12:52:19.880Z,21.58
2023-04-09T12:54:49.086Z,21.73
2023-04-09T12:57:18.452Z,21.74
2023-04-09T12:59:48.790Z,21.53
2023-04-09T13:02:18.869Z,21.22
2023-04-09T13:04:48.550Z,20.87
2023-04-09T13:07:17.845Z,20.46
2023-04-09T13:09:46.737Z,20.05
2023-04-09T13:12:17.701Z,19.63
2023-04-09T13:14:46.797Z,19.26
2023-04-09T13:17:16.177Z,18.91
2023-04-09T13:19:50.597Z,18.78
2023-04-09T13:22:22.792Z,18.79
2023-04-09T13:24:51.567Z,18.81
2023-04-09T13:27:23.120Z,18.97
2023-04-09T13:29:51.499Z,19.17
2023-04-09T13:32:22.388Z,19.39
2023-04-09T13:34:58.194Z,19.46
2023-04-09T13:37:26.675Z,19.47
2023-04-09T13:39:56.213Z,19.40
2023-04-09T13:42:26.107Z,19.21
2023-04-09T13:44:55.718Z,18.89
2023-04-09T13:47:24.468Z,18.54
2023-04-09T13:49:53.709Z,18.18
2023-04-09T13:52:22.079Z,17.84
2023-04-09T13:54:50.569Z,17.49
2023-04-09T13:57:19.661Z,17.16
2023-04-09T13:59:49.989Z,16.90
2023-04-09T14:02:19.630Z,16.68
2023-04-09T14:04:48.255Z,16.40
2023-04-09T14:07:18.203Z,16.04
2023-04-09T14:09:47.003Z,15.62
2023-04-09T14:12:16.200Z,15.42
2023-04-09T14:14:45.715Z,15.21
2023-04-09T14:17:15.723Z,14.98
2023-04-09T14:19:48.608Z,14.75
2023-04-09T14:22:19.446Z,14.54
2023-04-09T14:24:48.543Z,14.40
2023-04-09T14:27:17.339Z,14.25
2023-04-09T14:29:46.638Z,14.12
2023-04-09T14:32:23.964Z,14.05
2023-04-09T14:35:09.924Z,13.97
2023-04-09T14:37:42.816Z,13.86
2023-04-09T14:40:13.966Z,13.77
2023-04-09T14:42:43.673Z,13.67
2023-04-09T14:45:25.569Z,13.56
2023-04-09T14:47:55.223Z,13.40
2023-04-09T14:50:26.739Z,13.39
2023-04-09T14:52:57.063Z,13.30
2023-04-09T14:55:45.211Z,13.14
2023-04-09T14:58:20.043Z,12.98
2023-04-09T15:00:55.110Z,12.92
2023-04-09T15:03:24.689Z,12.86
2023-04-09T15:06:01.695Z,12.80
2023-04-09T15:08:31.808Z,12.79
2023-04-09T15:11:19.326Z,12.81
2023-04-09T15:13:58.158Z,12.71
2023-04-09T15:16:28.553Z,12.57
2023-04-09T15:19:05.573Z,12.48
2023-04-09T15:21:38.452Z,12.38
2023-04-09T15:24:08.272Z,12.29
2023-04-09T15:26:40.131Z,12.17
2023-04-09T15:29:15.682Z,12.19
2023-04-09T15:31:46.075Z,12.19
2023-04-09T15:34:14.798Z,12.16
2023-04-09T15:36:46.313Z,12.15
2023-04-09T15:39:16.272Z,12.22
2023-04-09T15:41:45.059Z,12.27
2023-04-09T15:44:13.549Z,12.27
2023-04-09T15:46:57.102Z,12.24
2023-04-09T15:49:27.586Z,12.27
2023-04-09T15:52:01.324Z,12.27
2023-04-09T15:54:30.319Z,12.27
2023-04-09T15:56:59.833Z,12.28
2023-04-09T15:59:28.721Z,12.38
2023-04-09T16:01:57.742Z,12.49
2023-04-09T16:04:32.892Z,12.56
2023-04-09T16:07:05.955Z,12.59
2023-04-09T16:09:54.812Z,12.59
2023-04-09T16:12:26.297Z,12.59
2023-04-09T16:15:02.676Z,12.58
2023-04-09T16:17:40.970Z,12.54
2023-04-09T16:20:11.895Z,12.50
2023-04-09T16:22:45.601Z,12.43
2023-04-09T16:25:14.804Z,12.41
2023-04-09T16:27:49.122Z,12.34
2023-04-09T16:30:24.059Z,12.28
2023-04-09T16:32:56.762Z,12.23
2023-04-09T16:35:26.420Z,12.22
2023-04-09T16:38:09.782Z,12.22
2023-04-09T16:40:46.886Z,12.20
2023-04-09T16:43:19.550Z,12.15
2023-04-09T16:45:50.148Z,12.14
2023-04-09T16:48:37.410Z,12.17
2023-04-09T16:51:13.268Z,12.15
2023-04-09T16:53:45.849Z,12.15
2023-04-09T16:56:19.860Z,12.14
2023-04-09T16:58:48.752Z,12.18
2023-04-09T17:01:21.219Z,12.18
2023-04-09T17:03:50.159Z,12.11
2023-04-09T17:06:19.395Z,12.04
2023-04-09T17:08:47.812Z,11.96
2023-04-09T17:11:17.236Z,11.96
2023-04-09T17:13:52.049Z,12.00
2023-04-09T17:16:25.231Z,11.99
2023-04-09T17:18:54.469Z,12.00
2023-04-09T17:21:27.742Z,12.03
2023-04-09T17:24:02.490Z,12.11
2023-04-09T17:26:31.365Z,12.20
2023-04-09T17:29:00.162Z,12.21
2023-04-09T17:31:29.079Z,12.19
2023-04-09T17:34:17.408Z,12.18
2023-04-09T17:36:49.980Z,12.14
2023-04-09T17:39:18.940Z,12.18
2023-04-09T17:41:48.796Z,12.19
2023-04-09T17:44:28.954Z,12.15
2023-04-09T17:47:02.954Z,12.09
2023-04-09T17:49:32.484Z,12.07
2023-04-09T17:52:01.571Z,12.09
2023-04-09T17:54:34.919Z,12.07
2023-04-09T17:57:07.551Z,12.01
2023-04-09T17:59:49.250Z,12.01
2023-04-09T18:02:24.357Z,12.02
2023-04-09T18:04:53.607Z,12.09
2023-04-09T18:07:22.583Z,12.13
2023-04-09T18:09:53.007Z,12.15
2023-04-09T18:12:22.111Z,12.16
2023-04-09T18:14:59.718Z,12.15
2023-04-09T18:17:32.740Z,12.17
2023-04-09T18:20:01.705Z,12.16
2023-04-09T18:22:30.968Z,12.13
2023-04-09T18:25:00.001Z,12.03
2023-04-09T18:27:29.708Z,11.95
2023-04-09T18:30:00.962Z,12.03
2023-04-09T18:32:40.087Z,12.07
2023-04-09T18:35:11.344Z,12.08
2023-04-09T18:37:42.799Z,12.06
2023-04-09T18:40:20.403Z,12.04
2023-04-09T18:42:55.096Z,12.09
2023-04-09T18:45:25.805Z,12.14
2023-04-09T18:47:56.354Z,12.14
2023-04-09T18:50:27.538Z,12.15
2023-04-09T18:52:56.741Z,12.14
2023-04-09T18:55:30.147Z,12.14
2023-04-09T18:57:59.032Z,12.13
2023-04-09T19:00:28.136Z,12.05
2023-04-09T19:02:57.743Z,12.00
2023-04-09T19:05:26.946Z,11.97
2023-04-09T19:08:00.246Z,12.01
2023-04-09T19:10:29.039Z,12.07
2023-04-09T19:12:57.624Z,12.07
2023-04-09T19:15:26.929Z,12.06
2023-04-09T19:17:58.730Z,12.02
2023-04-09T19:20:29.020Z,12.06
2023-04-09T19:22:58.631Z,12.07
2023-04-09T19:25:27.535Z,12.04
2023-04-09T19:27:57.616Z,12.05
2023-04-09T19:30:26.027Z,12.05
2023-04-09T19:33:10.308Z,12.03
2023-04-09T19:35:41.367Z,12.02
2023-04-09T19:38:15.560Z,11.98
2023-04-09T19:40:45.773Z,11.92
2023-04-09T19:43:14.265Z,11.90
2023-04-09T19:45:44.684Z,11.94
2023-04-09T19:48:14.055Z,11.91
2023-04-09T19:50:48.714Z,11.88
2023-04-09T19:53:18.741Z,11.89
2023-04-09T19:55:47.135Z,11.92
2023-04-09T19:58:15.804Z,11.92
2023-04-09T20:00:44.235Z,11.90
2023-04-09T20:03:16.881Z,11.86
2023-04-09T20:05:45.453Z,11.82
2023-04-09T20:08:15.918Z,11.84
2023-04-09T20:10:47.543Z,11.83
2023-04-09T20:13:18.381Z,11.76
2023-04-09T20:15:47.175Z,11.69
2023-04-09T20:18:20.795Z,11.66
2023-04-09T20:20:52.233Z,11.66
2023-04-09T20:23:21.432Z,11.66
2023-04-09T20:25:56.482Z,11.65
2023-04-09T20:28:25.061Z,11.71
2023-04-09T20:30:53.862Z,11.81
2023-04-09T20:33:22.749Z,11.84
2023-04-09T20:35:52.583Z,11.84
2023-04-09T20:38:22.605Z,11.83
2023-04-09T20:40:54.544Z,11.88
2023-04-09T20:43:23.538Z,11.93
2023-04-09T20:46:00.085Z,12.00
2023-04-09T20:48:32.077Z,12.03
2023-04-09T20:51:00.967Z,11.98
2023-04-09T20:53:30.172Z,12.02
2023-04-09T20:55:58.964Z,12.06
2023-04-09T20:58:32.463Z,12.05
2023-04-09T21:01:09.485Z,12.01
2023-04-09T21:03:39.255Z,11.99
2023-04-09T21:06:09.703Z,12.02
2023-04-09T21:08:42.996Z,12.07
2023-04-09T21:11:12.397Z,12.06
2023-04-09T21:13:53.801Z,12.00
2023-04-09T21:16:26.339Z,12.05
2023-04-09T21:18:54.810Z,11.99
2023-04-09T21:21:28.595Z,11.92
2023-04-09T21:23:57.574Z,11.81
2023-04-09T21:26:25.938Z,11.75
2023-04-09T21:28:57.599Z,11.74
2023-04-09T21:31:27.552Z,11.76
2023-04-09T21:33:56.412Z,11.76
2023-04-09T21:36:26.636Z,11.81
2023-04-09T21:38:55.223Z,11.79
2023-04-09T21:41:24.836Z,11.72
2023-04-09T21:43:53.216Z,11.68
2023-04-09T21:46:22.092Z,11.68
2023-04-09T21:48:50.723Z,11.74
2023-04-09T21:51:19.611Z,11.78
2023-04-09T21:53:49.725Z,11.79
2023-04-09T21:56:18.506Z,11.79
2023-04-09T21:58:47.716Z,11.82
2023-04-09T22:01:28.244Z,11.87
2023-04-09T22:03:58.444Z,11.86
2023-04-09T22:06:29.260Z,11.79
2023-04-09T22:08:58.669Z,11.73
2023-04-09T22:11:28.481Z,11.73
2023-04-09T22:13:57.683Z,11.74
2023-04-09T22:16:26.734Z,11.68
2023-04-09T22:18:55.612Z,11.63
2023-04-09T22:21:29.667Z,11.71
2023-04-09T22:23:59.276Z,11.73
2023-04-09T22:26:28.368Z,11.72
2023-04-09T22:29:04.451Z,11.67
2023-04-09T22:31:35.038Z,11.69
2023-04-09T22:34:17.211Z,11.72
2023-04-09T22:36:50.264Z,11.74
2023-04-09T22:39:18.965Z,11.73
2023-04-09T22:41:47.435Z,11.76
2023-04-09T22:44:16.336Z,11.88
2023-04-09T22:46:46.580Z,11.96
2023-04-09T22:49:16.072Z,12.01
2023-04-09T22:51:44.750Z,12.05
2023-04-09T22:54:13.645Z,12.05
2023-04-09T22:56:44.903Z,12.11
2023-04-09T22:59:15.023Z,12.20
2023-04-09T23:01:43.781Z,12.18
2023-04-09T23:04:13.252Z,12.12
2023-04-09T23:06:42.003Z,12.03
2023-04-09T23:09:11.196Z,12.00
2023-04-09T23:11:48.069Z,11.97
2023-04-09T23:14:17.291Z,11.88
2023-04-09T23:16:46.084Z,11.83
2023-04-09T23:19:22.854Z,11.81
2023-04-09T23:21:51.549Z,11.83
2023-04-09T23:24:20.134Z,11.83
2023-04-09T23:26:50.680Z,11.80
2023-04-09T23:29:20.068Z,11.76
2023-04-09T23:31:49.023Z,11.80
2023-04-09T23:34:19.493Z,11.88
2023-04-09T23:36:47.874Z,11.88
2023-04-09T23:39:16.667Z,11.87
2023-04-09T23:41:46.586Z,11.88
2023-04-09T23:44:19.990Z,11.97
2023-04-09T23:46:48.728Z,12.04
2023-04-09T23:49:17.368Z,12.04
2023-04-09T23:51:53.425Z,12.03
2023-04-09T23:54:22.327Z,12.03
2023-04-09T23:56:53.283Z,12.08
2023-04-09T23:59:21.949Z,12.13
